Time;durP1;ratioP1;P1;durP2;ratioP2;P2;SDS_P1;SDS_P2;PMS_P1;PMS_P2;Temp;Humidity;BMP_temperature;BMP_pressure;BME280_temperature;BME280_humidity;BME280_pressure;Samples;Min_cycle;Max_cycle;Signal;HPM_P1;HPM_P2
2022/04/16 00:02:06;;;;;;;;;;;;;;;8.63;100.00;98677.11;1767937;80;26047;-87
2022/04/16 00:04:33;;;;;;;;;;;;;;;8.66;100.00;98676.95;1771605;80;24538;-84
2022/04/16 00:06:59;;;;;;;;;;;;;;;8.62;100.00;98678.04;1769355;80;20229;-86
2022/04/16 00:09:25;;;;;;;;;;;;;;;8.58;100.00;98673.94;1767956;80;24545;-84
2022/04/16 00:11:52;;;;;;;;;;;;;;;8.56;100.00;98672.36;1771171;80;22107;-83
2022/04/16 00:14:19;;;;;;;;;;;;;;;8.53;100.00;98670.76;1762849;80;26767;-83
2022/04/16 00:16:46;;;;;;;;;;;;;;;8.54;100.00;98665.92;1767419;80;24524;-82
2022/04/16 00:19:14;;;;;;;;;;;;;;;8.57;100.00;98667.03;1771228;80;20239;-84
2022/04/16 00:21:40;;;;;;;;;;;;;;;8.56;100.00;98668.45;1776435;80;24376;-83
2022/04/16 00:24:07;;;;;;;;;;;;;;;8.55;100.00;98671.52;1770476;80;20228;-83
2022/04/16 00:26:38;;;;;;;;;;;;;;;8.58;100.00;98664.80;1770101;78;25994;-83
2022/04/16 00:29:02;;;;;;;;;;;;;;;8.56;100.00;98666.69;1762222;81;24535;-82
2022/04/16 00:31:29;;;;;;;;;;;;;;;8.57;100.00;98670.95;1767670;81;20347;-84
2022/04/16 00:33:57;;;;;;;;;;;;;;;8.63;100.00;98665.38;1765760;81;25277;-82
2022/04/16 00:36:23;;;;;;;;;;;;;;;8.64;100.00;98661.84;1759450;81;22047;-86
2022/04/16 00:38:49;;;;;;;;;;;;;;;8.66;100.00;98661.77;1764878;81;21175;-86
2022/04/16 00:41:16;;;;;;;;;;;;;;;8.65;100.00;98663.99;1761207;80;24428;-84
2022/04/16 00:43:42;;;;;;;;;;;;;;;8.66;100.00;98658.70;1765810;81;21081;-86
2022/04/16 00:46:10;;;;;;;;;;;;;;;8.67;100.00;98661.65;1759047;80;25314;-86
2022/04/16 00:48:36;;;;;;;;;;;;;;;8.70;100.00;98660.64;1763746;81;26149;-83
2022/04/16 00:51:02;;;;;;;;;;;;;;;8.73;100.00;98661.30;1765864;80;20955;-84
2022/04/16 00:53:29;;;;;;;;;;;;;;;8.73;100.00;98662.60;1761027;81;38289;-86
2022/04/16 00:55:56;;;;;;;;;;;;;;;8.75;100.00;98663.36;1762332;81;20884;-83
2022/04/16 00:58:24;;;;;;;;;;;;;;;8.72;100.00;98660.95;1765000;81;24007;-85
2022/04/16 01:00:52;;;;;;;;;;;;;;;8.71;100.00;98659.72;1769303;81;21949;-84
2022/04/16 01:03:18;;;;;;;;;;;;;;;8.72;100.00;98648.36;1768302;81;26012;-86
2022/04/16 01:05:44;;;;;;;;;;;;;;;8.66;100.00;98656.09;1763680;81;24416;-87
2022/04/16 01:08:10;;;;;;;;;;;;;;;8.66;100.00;98660.00;1766511;81;20440;-83
2022/04/16 01:10:36;;;;;;;;;;;;;;;8.62;100.00;98657.17;1767395;81;20605;-86
2022/04/16 01:13:04;;;;;;;;;;;;;;;8.57;100.00;98653.98;1768379;80;22167;-85
2022/04/16 01:15:32;;;;;;;;;;;;;;;8.56;100.00;98653.64;1766113;81;26883;-84
2022/04/16 01:18:05;;;;;;;;;;;;;;;8.55;100.00;98660.24;1763140;81;24681;-84
2022/04/16 01:20:41;;;;;;;;;;;;;;;8.53;100.00;98657.72;1764125;81;20122;-84
2022/04/16 01:23:04;;;;;;;;;;;;;;;8.52;100.00;98656.48;1761774;81;24538;-85
2022/04/16 01:25:32;;;;;;;;;;;;;;;8.51;100.00;98658.75;1766340;81;22228;-85
2022/04/16 01:27:58;;;;;;;;;;;;;;;8.50;100.00;98661.82;1765751;78;26902;-85
2022/04/16 01:30:24;;;;;;;;;;;;;;;8.49;100.00;98660.13;1760627;81;24428;-87
2022/04/16 01:32:56;;;;;;;;;;;;;;;8.49;100.00;98661.90;1763260;81;20152;-84
2022/04/16 01:35:23;;;;;;;;;;;;;;;8.48;100.00;98668.03;1761888;81;24493;-89
2022/04/16 01:37:52;;;;;;;;;;;;;;;8.44;100.00;98666.54;1764813;81;22037;-88
2022/04/16 01:40:25;;;;;;;;;;;;;;;8.33;100.00;98677.59;1764921;81;26044;-85
2022/04/16 01:42:57;;;;;;;;;;;;;;;8.24;100.00;98678.05;1763162;81;25130;-84
2022/04/16 01:45:24;;;;;;;;;;;;;;;8.08;100.00;98680.69;1758584;81;20340;-87
2022/04/16 01:47:59;;;;;;;;;;;;;;;8.01;100.00;98681.13;1761989;81;24602;-87
2022/04/16 01:50:24;;;;;;;;;;;;;;;7.93;100.00;98684.98;1770281;81;22881;-88
2022/04/16 01:52:49;;;;;;;;;;;;;;;7.82;100.00;98687.34;1760132;81;20956;-85
2022/04/16 01:55:16;;;;;;;;;;;;;;;7.80;100.00;98686.58;1770269;81;24403;-87
2022/04/16 01:57:42;;;;;;;;;;;;;;;7.82;100.00;98681.29;1754746;81;20213;-88
2022/04/16 02:00:14;;;;;;;;;;;;;;;7.74;100.00;98690.84;1768734;81;24633;-87
2022/04/16 02:02:40;;;;;;;;;;;;;;;7.69;100.00;98692.02;1764169;81;22386;-84
2022/04/16 02:05:10;;;;;;;;;;;;;;;7.58;100.00;98693.41;1763317;81;26005;-87
2022/04/16 02:07:35;;;;;;;;;;;;;;;7.50;100.00;98696.90;1764272;81;24164;-85
2022/04/16 02:10:03;;;;;;;;;;;;;;;7.42;100.00;98703.41;1760323;81;20275;-83
2022/04/16 02:12:29;;;;;;;;;;;;;;;7.32;100.00;98707.42;1765240;81;24526;-84
2022/04/16 02:14:55;;;;;;;;;;;;;;;7.25;100.00;98710.84;1759453;81;22032;-87
2022/04/16 02:17:21;;;;;;;;;;;;;;;7.21;100.00;98709.75;1759480;81;20977;-85
2022/04/16 02:19:48;;;;;;;;;;;;;;;7.20;100.00;98709.39;1762600;81;20299;-84
2022/04/16 02:22:16;;;;;;;;;;;;;;;7.15;100.00;98715.65;1766684;81;20190;-85
2022/04/16 02:24:45;;;;;;;;;;;;;;;7.13;100.00;98720.11;1761344;81;24782;-85
2022/04/16 02:27:10;;;;;;;;;;;;;;;7.13;100.00;98722.72;1765237;78;21993;-88
2022/04/16 02:29:40;;;;;;;;;;;;;;;7.10;100.00;98715.50;1771465;80;21612;-84
2022/04/16 02:32:06;;;;;;;;;;;;;;;7.08;100.00;98722.57;1770316;80;25229;-85
2022/04/16 02:34:33;;;;;;;;;;;;;;;7.02;100.00;98726.78;1768341;80;21246;-85
2022/04/16 02:36:59;;;;;;;;;;;;;;;6.95;100.00;98734.05;1767871;80;24600;-87
2022/04/16 02:39:25;;;;;;;;;;;;;;;6.86;100.00;98737.13;1767767;80;20224;-89
2022/04/16 02:41:51;;;;;;;;;;;;;;;6.77;100.00;98732.81;1772763;80;25847;-87
2022/04/16 02:47:09;;;;;;;;;;;;;;;6.60;100.00;98737.09;1767804;80;20211;-85
2022/04/16 02:49:39;;;;;;;;;;;;;;;6.53;100.00;98740.08;1767794;80;25187;-86
2022/04/16 02:52:07;;;;;;;;;;;;;;;6.48;100.00;98738.16;1773102;80;22005;-86
2022/04/16 02:54:33;;;;;;;;;;;;;;;6.46;100.00;98742.58;1771496;80;26086;-90
2022/04/16 02:56:59;;;;;;;;;;;;;;;6.48;100.00;98741.61;1772268;80;20259;-86
2022/04/16 02:59:28;;;;;;;;;;;;;;;6.47;100.00;98753.38;1771182;80;20245;-89
2022/04/16 03:01:54;;;;;;;;;;;;;;;6.44;100.00;98765.20;1771268;80;24514;-89
2022/04/16 03:04:20;;;;;;;;;;;;;;;6.36;100.00;98762.98;1774723;80;22211;-87
2022/04/16 03:06:46;;;;;;;;;;;;;;;6.29;100.00;98764.18;1768605;80;20948;-85
2022/04/16 03:09:12;;;;;;;;;;;;;;;6.18;100.00;98771.64;1770349;80;24427;-86
2022/04/16 03:11:44;;;;;;;;;;;;;;;6.04;100.00;98780.09;1774508;80;20774;-89
2022/04/16 03:19:49;;;;;;;;;;;;;;;5.82;100.00;98794.47;1773611;80;26750;-88
2022/04/16 03:22:15;;;;;;;;;;;;;;;5.76;100.00;98799.94;1766938;80;24415;-86
2022/04/16 03:24:41;;;;;;;;;;;;;;;5.75;100.00;98800.00;1770578;80;20466;-89
2022/04/16 03:27:08;;;;;;;;;;;;;;;5.73;100.00;98819.53;1773738;79;20192;-86
2022/04/16 03:29:35;;;;;;;;;;;;;;;5.66;100.00;98809.05;1775325;80;22865;-85
2022/04/16 03:32:02;;;;;;;;;;;;;;;5.57;100.00;98811.18;1779368;80;26063;-85
2022/04/16 03:34:30;;;;;;;;;;;;;;;5.52;100.00;98813.14;1774432;80;24685;-87
2022/04/16 03:36:57;;;;;;;;;;;;;;;5.54;100.00;98814.77;1777238;80;20287;-85
2022/04/16 03:39:23;;;;;;;;;;;;;;;5.61;100.00;98812.76;1777231;80;24540;-84
2022/04/16 03:41:49;;;;;;;;;;;;;;;5.68;100.00;98820.64;1778071;80;21953;-85
2022/04/16 03:44:14;;;;;;;;;;;;;;;5.66;100.00;98825.08;1775246;80;20975;-84
2022/04/16 03:46:40;;;;;;;;;;;;;;;5.71;100.00;98823.12;1778458;79;20271;-86
2022/04/16 03:49:07;;;;;;;;;;;;;;;5.68;100.00;98829.73;1775262;80;20586;-87
2022/04/16 03:51:35;;;;;;;;;;;;;;;5.67;100.00;98829.37;1747561;80;24527;-84
2022/04/16 03:59:59;;;;;;;;;;;;;;;5.63;100.00;98832.98;1779066;80;22146;-84
2022/04/16 04:02:03;;;;;;;;;;;;;;;5.58;100.00;98842.28;1775808;80;20467;-86
2022/04/16 04:04:29;;;;;;;;;;;;;;;5.52;100.00;98845.13;1773712;80;24693;-85
2022/04/16 04:06:55;;;;;;;;;;;;;;;5.45;100.00;98851.03;1773442;80;21687;-87
2022/04/16 04:09:24;;;;;;;;;;;;;;;5.38;100.00;98851.38;1747724;80;21980;-88
2022/04/16 04:11:50;;;;;;;;;;;;;;;5.33;100.00;98861.11;1776230;80;20838;-88
2022/04/16 04:14:16;;;;;;;;;;;;;;;5.30;100.00;98859.47;1776620;80;20205;-84
2022/04/16 04:16:42;;;;;;;;;;;;;;;5.23;100.00;98863.70;1772793;80;20829;-84
2022/04/16 04:19:09;;;;;;;;;;;;;;;5.19;100.00;98869.45;1771950;80;22189;-84
2022/04/16 04:21:37;;;;;;;;;;;;;;;5.18;100.00;98874.28;1778199;80;26779;-84
2022/04/16 04:24:03;;;;;;;;;;;;;;;5.18;100.00;98869.09;1773483;80;24545;-87
2022/04/16 04:26:29;;;;;;;;;;;;;;;5.14;100.00;98873.98;1776334;80;20204;-87
2022/04/16 04:28:55;;;;;;;;;;;;;;;5.12;100.00;98873.67;1766363;80;20768;-87
2022/04/16 04:31:27;;;;;;;;;;;;;;;5.10;100.00;98884.55;1756854;81;20505;-87
2022/04/16 04:33:53;;;;;;;;;;;;;;;5.10;100.00;98881.96;1762515;81;26002;-87
2022/04/16 04:36:19;;;;;;;;;;;;;;;5.13;100.00;98885.75;1764308;81;20247;-87
2022/04/16 04:38:45;;;;;;;;;;;;;;;5.18;100.00;98886.40;1764798;81;20165;-84
2022/04/16 04:41:11;;;;;;;;;;;;;;;5.23;100.00;98890.50;1765299;81;24471;-84
2022/04/16 04:43:37;;;;;;;;;;;;;;;5.20;100.00;98888.45;1761453;81;22024;-87
2022/04/16 04:46:03;;;;;;;;;;;;;;;5.13;100.00;98896.94;1762829;81;25967;-84
2022/04/16 04:48:29;;;;;;;;;;;;;;;5.16;100.00;98898.13;1763660;81;20366;-84
2022/04/16 04:50:55;;;;;;;;;;;;;;;5.14;100.00;98905.56;1760510;81;20271;-83
2022/04/16 04:53:21;;;;;;;;;;;;;;;5.15;100.00;98908.11;1766740;81;20361;-85
2022/04/16 04:55:47;;;;;;;;;;;;;;;5.14;100.00;98906.86;1764521;81;21932;-84
2022/04/16 04:58:13;;;;;;;;;;;;;;;5.16;100.00;98907.66;1768300;81;26036;-86
2022/04/16 05:00:39;;;;;;;;;;;;;;;5.18;100.00;98910.59;1764855;81;24536;-84
2022/04/16 05:03:05;;;;;;;;;;;;;;;5.20;100.00;98912.66;1764721;81;20307;-87
2022/04/16 05:05:31;;;;;;;;;;;;;;;5.18;100.00;98911.89;1763330;81;24549;-87
2022/04/16 05:07:57;;;;;;;;;;;;;;;5.19;100.00;98912.70;1764802;81;20267;-85
2022/04/16 05:10:23;;;;;;;;;;;;;;;5.23;100.00;98916.44;1758127;81;26001;-84
2022/04/16 05:12:49;;;;;;;;;;;;;;;5.22;100.00;98921.69;1760604;81;24571;-85
2022/04/16 05:15:15;;;;;;;;;;;;;;;5.25;100.00;98926.28;1764940;81;20209;-84
2022/04/16 05:17:41;;;;;;;;;;;;;;;5.24;100.00;98934.97;1761510;81;24635;-84
2022/04/16 05:20:08;;;;;;;;;;;;;;;5.28;100.00;98931.37;1765645;81;22053;-85
2022/04/16 05:22:34;;;;;;;;;;;;;;;5.33;100.00;98936.37;1758175;81;25949;-84
2022/04/16 05:25:00;;;;;;;;;;;;;;;5.36;100.00;98938.38;1763822;81;24532;-84
2022/04/16 05:27:26;;;;;;;;;;;;;;;5.38;100.00;98946.95;1763514;81;20228;-84
2022/04/16 05:30:11;;;;;;;;;;;;;;;5.40;100.00;98950.31;1776975;80;24535;-85
2022/04/16 05:32:37;;;;;;;;;;;;;;;5.35;100.00;98954.84;1777096;80;22015;-85
2022/04/16 05:35:04;;;;;;;;;;;;;;;5.22;100.00;98958.01;1777322;80;25975;-86
2022/04/16 05:37:31;;;;;;;;;;;;;;;5.17;100.00;98958.64;1776467;80;24515;-84
2022/04/16 05:39:57;;;;;;;;;;;;;;;5.11;100.00;98958.44;1776229;80;20456;-84
2022/04/16 05:42:23;;;;;;;;;;;;;;;5.13;100.00;98964.87;1776427;80;20216;-84
2022/04/16 05:44:49;;;;;;;;;;;;;;;5.11;100.00;98967.52;1776366;80;20403;-87
2022/04/16 05:47:14;;;;;;;;;;;;;;;5.10;100.00;98964.52;1777304;80;26092;-87
2022/04/16 05:49:40;;;;;;;;;;;;;;;5.08;100.00;98970.21;1776943;80;20341;-85
2022/04/16 05:52:07;;;;;;;;;;;;;;;5.08;100.00;98974.10;1750936;80;20290;-84
2022/04/16 05:54:36;;;;;;;;;;;;;;;5.10;100.00;98971.00;1776830;80;24497;-88
2022/04/16 05:57:03;;;;;;;;;;;;;;;5.11;100.00;98977.89;1776142;80;21975;-85
2022/04/16 05:59:29;;;;;;;;;;;;;;;5.14;100.00;98978.20;1779467;80;25954;-88
2022/04/16 06:01:55;;;;;;;;;;;;;;;5.13;100.00;98976.06;1777545;80;24385;-84
2022/04/16 06:04:22;;;;;;;;;;;;;;;5.15;100.00;98976.86;1773490;80;20507;-87
2022/04/16 06:06:47;;;;;;;;;;;;;;;5.20;100.00;98982.70;1774595;80;20234;-85
2022/04/16 06:09:14;;;;;;;;;;;;;;;5.27;100.00;98978.13;1779546;80;20228;-87
2022/04/16 06:11:41;;;;;;;;;;;;;;;5.30;100.00;98979.28;1776944;80;26012;-86
2022/04/16 06:14:08;;;;;;;;;;;;;;;5.29;100.00;98981.03;1777210;80;24442;-85
2022/04/16 06:16:34;;;;;;;;;;;;;;;5.29;100.00;98981.52;1775362;80;20184;-85
2022/04/16 06:19:00;;;;;;;;;;;;;;;5.29;100.00;98984.92;1778452;80;24571;-88
2022/04/16 06:21:26;;;;;;;;;;;;;;;5.29;100.00;98983.62;1770639;80;22040;-88
2022/04/16 06:23:53;;;;;;;;;;;;;;;5.35;100.00;98991.62;1773986;80;20964;-84
2022/04/16 06:26:30;;;;;;;;;;;;;;;5.36;100.00;98995.47;1775411;80;24115;-88
2022/04/16 06:28:53;;;;;;;;;;;;;;;5.28;100.00;98994.94;1770461;80;20145;-85
2022/04/16 06:31:19;;;;;;;;;;;;;;;5.27;100.00;98999.73;1781978;80;20770;-88
2022/04/16 06:33:45;;;;;;;;;;;;;;;5.26;100.00;98995.89;1782852;80;22008;-88
2022/04/16 06:36:11;;;;;;;;;;;;;;;5.23;100.00;98993.44;1780703;79;25986;-85
2022/04/16 06:38:37;;;;;;;;;;;;;;;5.23;100.00;98994.73;1780879;80;20372;-84
2022/04/16 06:41:04;;;;;;;;;;;;;;;5.21;100.00;98999.12;1782515;80;20440;-87
2022/04/16 06:43:36;;;;;;;;;;;;;;;5.21;100.00;98997.83;1781121;80;24633;-86
2022/04/16 06:46:03;;;;;;;;;;;;;;;5.20;100.00;98997.42;1782788;80;21993;-84
2022/04/16 06:48:28;;;;;;;;;;;;;;;5.19;100.00;99001.77;1777953;80;25990;-84
2022/04/16 06:50:54;;;;;;;;;;;;;;;5.20;100.00;99000.02;1774680;80;20532;-84
2022/04/16 06:53:21;;;;;;;;;;;;;;;5.20;100.00;98999.58;1778075;80;20261;-84
2022/04/16 06:55:47;;;;;;;;;;;;;;;5.17;100.00;99006.19;1780856;80;24614;-84
2022/04/16 06:58:15;;;;;;;;;;;;;;;5.09;100.00;99006.08;1779174;80;20366;-87
2022/04/16 07:00:41;;;;;;;;;;;;;;;5.12;100.00;99013.31;1782834;79;26042;-87
2022/04/16 07:03:07;;;;;;;;;;;;;;;5.12;100.00;99021.55;1779270;80;24339;-84
2022/04/16 07:05:36;;;;;;;;;;;;;;;5.10;100.00;99023.34;1779240;80;20684;-84
2022/04/16 07:08:03;;;;;;;;;;;;;;;5.10;100.00;99025.48;1780826;80;24682;-84
2022/04/16 07:10:29;;;;;;;;;;;;;;;5.13;100.00;99025.83;1777839;80;22035;-84
2022/04/16 07:12:55;;;;;;;;;;;;;;;5.15;100.00;99022.70;1783221;80;21014;-86
2022/04/16 07:15:21;;;;;;;;;;;;;;;5.10;100.00;99019.00;1780162;80;20354;-84
2022/04/16 07:17:47;;;;;;;;;;;;;;;5.07;100.00;99029.95;1782267;80;20475;-84
2022/04/16 07:20:13;;;;;;;;;;;;;;;4.99;100.00;99025.05;1780454;80;24504;-84
2022/04/16 07:22:39;;;;;;;;;;;;;;;4.96;100.00;99027.77;1775444;80;22022;-85
2022/04/16 07:25:14;;;;;;;;;;;;;;;4.89;100.00;99035.38;1781188;80;21114;-87
2022/04/16 07:27:48;;;;;;;;;;;;;;;4.82;100.00;99032.16;1779244;80;25188;-84
2022/04/16 07:30:14;;;;;;;;;;;;;;;4.79;100.00;99035.33;1780437;80;20439;-85
2022/04/16 07:32:40;;;;;;;;;;;;;;;4.76;100.00;99039.31;1782016;80;24593;-84
2022/04/16 07:35:06;;;;;;;;;;;;;;;4.76;100.00;99041.91;1782428;79;22105;-84
2022/04/16 07:37:36;;;;;;;;;;;;;;;4.80;100.00;99040.91;1782133;80;26677;-84
2022/04/16 07:40:02;;;;;;;;;;;;;;;4.82;100.00;99041.69;1782765;80;24745;-84
2022/04/16 07:42:33;;;;;;;;;;;;;;;4.83;100.00;99042.93;1782231;80;20228;-84
2022/04/16 07:45:08;;;;;;;;;;;;;;;4.83;100.00;99043.38;1783048;80;24551;-84
2022/04/16 07:47:35;;;;;;;;;;;;;;;4.87;100.00;99049.69;1782094;80;21956;-84
2022/04/16 07:50:01;;;;;;;;;;;;;;;4.85;100.00;99045.48;1782480;80;26032;-84
2022/04/16 07:52:28;;;;;;;;;;;;;;;4.85;100.00;99038.55;1782601;80;20791;-85
2022/04/16 07:54:57;;;;;;;;;;;;;;;4.90;100.00;99039.22;1781199;80;20468;-87
2022/04/16 07:57:28;;;;;;;;;;;;;;;4.90;100.00;99039.67;1779697;80;24682;-87
2022/04/16 07:59:54;;;;;;;;;;;;;;;4.93;100.00;99046.02;1781909;80;22024;-86
2022/04/16 08:02:20;;;;;;;;;;;;;;;4.91;100.00;99050.44;1779126;80;26080;-87
2022/04/16 08:04:47;;;;;;;;;;;;;;;4.91;100.00;99050.44;1779708;80;24539;-84
2022/04/16 08:07:13;;;;;;;;;;;;;;;4.86;100.00;99048.44;1781941;80;20253;-84
2022/04/16 08:09:40;;;;;;;;;;;;;;;4.81;100.00;99050.36;1782301;80;24779;-84
2022/04/16 08:12:12;;;;;;;;;;;;;;;4.83;100.00;99052.01;1781600;80;20307;-84
2022/04/16 08:14:42;;;;;;;;;;;;;;;4.80;100.00;99053.40;1782498;80;26661;-85
2022/04/16 08:17:09;;;;;;;;;;;;;;;4.82;100.00;99055.50;1781669;80;24543;-85
2022/04/16 08:19:35;;;;;;;;;;;;;;;4.80;100.00;99059.06;1782383;80;20236;-86
2022/04/16 08:22:07;;;;;;;;;;;;;;;4.77;100.00;99060.45;1782417;80;24558;-88
2022/04/16 08:26:58;;;;;;;;;;;;;;;4.81;100.00;99060.28;1782603;79;26074;-86
2022/04/16 08:29:24;;;;;;;;;;;;;;;4.88;100.00;99064.80;1780432;78;20306;-87
2022/04/16 08:31:50;;;;;;;;;;;;;;;4.87;100.00;99060.51;1771275;80;20236;-87
2022/04/16 08:34:17;;;;;;;;;;;;;;;4.90;100.00;99064.30;1767288;80;20797;-84
2022/04/16 08:36:43;;;;;;;;;;;;;;;4.94;100.00;99069.77;1772571;80;22034;-85
2022/04/16 08:39:09;;;;;;;;;;;;;;;4.97;100.00;99070.94;1770682;80;21160;-84
2022/04/16 08:41:39;;;;;;;;;;;;;;;5.01;100.00;99075.98;1767830;80;24404;-85
2022/04/16 08:44:14;;;;;;;;;;;;;;;5.03;100.00;99083.23;1772305;80;20188;-87
2022/04/16 08:46:39;;;;;;;;;;;;;;;5.00;100.00;99076.88;1769623;80;24697;-85
2022/04/16 08:49:06;;;;;;;;;;;;;;;5.01;100.00;99079.87;1771122;80;21938;-85
2022/04/16 08:51:32;;;;;;;;;;;;;;;5.05;100.00;99085.77;1768320;80;26017;-85
2022/04/16 08:53:59;;;;;;;;;;;;;;;5.01;100.00;99088.95;1768016;80;20287;-86
2022/04/16 08:56:28;;;;;;;;;;;;;;;4.95;100.00;99085.72;1771304;80;20284;-87
2022/04/16 08:58:56;;;;;;;;;;;;;;;5.01;100.00;99088.95;1773760;80;24757;-87
2022/04/16 09:01:22;;;;;;;;;;;;;;;5.03;100.00;99091.45;1774576;80;22085;-85
2022/04/16 09:03:49;;;;;;;;;;;;;;;5.02;100.00;99096.25;1768747;80;26018;-87
2022/04/16 09:06:28;;;;;;;;;;;;;;;5.00;100.00;99100.22;1767422;80;24120;-85
2022/04/16 09:08:56;;;;;;;;;;;;;;;5.01;100.00;99099.32;1765891;80;20159;-84
2022/04/16 09:11:24;;;;;;;;;;;;;;;5.00;100.00;99101.96;1771931;80;24748;-84
2022/04/16 09:13:56;;;;;;;;;;;;;;;5.01;100.00;99108.84;1768750;80;22630;-84
2022/04/16 09:16:22;;;;;;;;;;;;;;;5.07;100.00;99111.22;1772013;80;26182;-87
2022/04/16 09:18:50;;;;;;;;;;;;;;;5.03;100.00;99113.06;1771378;80;24661;-87
2022/04/16 09:21:17;;;;;;;;;;;;;;;4.93;100.00;99110.86;1768041;80;20294;-84
2022/04/16 09:23:51;;;;;;;;;;;;;;;4.89;100.00;99115.77;1772274;80;24568;-87
2022/04/16 09:26:37;;;;;;;;;;;;;;;4.92;100.00;99120.38;1772406;80;22064;-87
2022/04/16 09:29:08;;;;;;;;;;;;;;;4.95;100.00;99127.22;1767092;80;25378;-84
2022/04/16 09:31:34;;;;;;;;;;;;;;;4.98;100.00;99120.61;1769356;80;24414;-84
2022/04/16 09:34:01;;;;;;;;;;;;;;;4.98;100.00;99127.09;1767478;80;20537;-84
2022/04/16 09:36:29;;;;;;;;;;;;;;;4.93;100.00;99131.16;1764767;80;24546;-87
2022/04/16 09:39:07;;;;;;;;;;;;;;;4.96;100.00;99133.63;1768193;80;22052;-85
2022/04/16 09:41:38;;;;;;;;;;;;;;;4.99;100.00;99136.12;1770967;80;26016;-87
2022/04/16 09:44:18;;;;;;;;;;;;;;;4.95;100.00;99144.08;1758555;80;25241;-86
2022/04/16 09:46:45;;;;;;;;;;;;;;;4.86;100.00;99148.27;1774973;80;20472;-87
2022/04/16 09:49:19;;;;;;;;;;;;;;;4.88;100.00;99153.81;1764047;80;25409;-87
2022/04/16 09:51:46;;;;;;;;;;;;;;;4.85;100.00;99155.23;1766600;80;21885;-87
2022/04/16 09:54:12;;;;;;;;;;;;;;;4.82;100.00;99163.11;1767102;80;26048;-84
2022/04/16 09:56:39;;;;;;;;;;;;;;;4.80;100.00;99173.97;1771815;79;24393;-86
2022/04/16 09:59:07;;;;;;;;;;;;;;;4.78;100.00;99169.75;1767228;80;20583;-86
2022/04/16 10:01:33;;;;;;;;;;;;;;;4.72;100.00;99182.48;1770887;80;25251;-86
2022/04/16 10:04:02;;;;;;;;;;;;;;;4.64;100.00;99180.14;1774338;80;22037;-83
2022/04/16 10:06:29;;;;;;;;;;;;;;;4.64;100.00;99182.73;1765559;80;26052;-83
2022/04/16 10:08:56;;;;;;;;;;;;;;;4.65;100.00;99184.87;1772269;80;24513;-86
2022/04/16 10:11:42;;;;;;;;;;;;;;;4.66;100.00;99183.13;1769516;80;20483;-87
2022/04/16 10:13:56;;;;;;;;;;;;;;;4.65;100.00;99200.42;1765963;80;24716;-87
2022/04/16 10:16:35;;;;;;;;;;;;;;;4.57;100.00;99195.52;1769597;80;22075;-87
2022/04/16 10:19:01;;;;;;;;;;;;;;;4.59;100.00;99194.15;1703237;84;26095;-86
2022/04/16 10:21:34;;;;;;;;;;;;;;;4.61;100.00;99193.66;1772794;80;20802;-87
2022/04/16 10:24:00;;;;;;;;;;;;;;;4.58;100.00;99201.55;1726016;80;20270;-85
2022/04/16 10:26:28;;;;;;;;;;;;;;;4.58;100.00;99189.89;1753143;80;24622;-87
2022/04/16 10:28:55;;;;;;;;;;;;;;;4.61;100.00;99200.99;1744180;80;22783;-86
2022/04/16 10:31:25;;;;;;;;;;;;;;;4.64;100.00;99195.69;1744351;80;26083;-85
2022/04/16 10:33:58;;;;;;;;;;;;;;;4.68;100.00;99198.20;1744671;80;24456;-85
2022/04/16 10:36:24;;;;;;;;;;;;;;;4.69;100.00;99203.30;1716550;81;20225;-85
2022/04/16 10:38:53;;;;;;;;;;;;;;;4.71;100.00;99213.63;1750039;80;24570;-84
2022/04/16 10:41:21;;;;;;;;;;;;;;;4.74;100.00;99216.14;1734332;80;22071;-83
2022/04/16 10:44:00;;;;;;;;;;;;;;;4.76;100.00;99209.14;1748459;80;26134;-86
2022/04/16 10:46:46;;;;;;;;;;;;;;;4.80;100.00;99216.75;1727477;80;24772;-85
2022/04/16 10:49:13;;;;;;;;;;;;;;;4.89;100.00;99223.39;1743404;80;20630;-86
2022/04/16 10:51:39;;;;;;;;;;;;;;;4.95;100.00;99216.70;1736523;80;24529;-86
2022/04/16 10:54:10;;;;;;;;;;;;;;;5.03;100.00;99222.00;1737071;80;22064;-86
2022/04/16 10:56:39;;;;;;;;;;;;;;;5.04;100.00;99218.97;1756817;80;26996;-85
2022/04/16 10:59:07;;;;;;;;;;;;;;;5.07;100.00;99218.88;1752240;80;25228;-86
2022/04/16 11:01:33;;;;;;;;;;;;;;;5.07;100.00;99223.22;1735531;80;20494;-86
2022/04/16 11:03:59;;;;;;;;;;;;;;;5.00;100.00;99232.50;1730728;80;24507;-83
2022/04/16 11:06:39;;;;;;;;;;;;;;;4.96;100.00;99230.89;1749990;80;21944;-86
2022/04/16 11:09:03;;;;;;;;;;;;;;;4.85;100.00;99220.52;1750996;80;26824;-86
2022/04/16 11:11:28;;;;;;;;;;;;;;;4.93;100.00;99231.01;1742405;80;20314;-83
2022/04/16 11:13:56;;;;;;;;;;;;;;;4.98;100.00;99233.44;1737681;80;20273;-83
2022/04/16 11:16:22;;;;;;;;;;;;;;;4.95;100.00;99228.38;1755830;80;24575;-87
2022/04/16 11:18:48;;;;;;;;;;;;;;;5.00;100.00;99227.77;1753907;80;22563;-86
2022/04/16 11:21:20;;;;;;;;;;;;;;;5.07;100.00;99226.66;1754234;80;26138;-87
2022/04/16 11:23:50;;;;;;;;;;;;;;;5.09;100.00;99226.13;1737693;80;25225;-86
2022/04/16 11:34:33;;;;;;;;;;;;;;;5.40;100.00;99228.02;1735169;80;26689;-84
2022/04/16 11:37:01;;;;;;;;;;;;;;;5.59;100.00;99232.55;1735068;80;20235;-87
2022/04/16 11:39:27;;;;;;;;;;;;;;;5.69;100.00;99226.11;1707976;80;20924;-87
2022/04/16 11:41:55;;;;;;;;;;;;;;;5.85;100.00;99231.97;1737847;80;24588;-83
2022/04/16 11:44:29;;;;;;;;;;;;;;;6.04;100.00;99233.45;1728163;80;22137;-83
2022/04/16 11:46:55;;;;;;;;;;;;;;;6.19;100.00;99235.45;1720852;80;26040;-83
2022/04/16 11:49:22;;;;;;;;;;;;;;;6.26;100.00;99231.70;1727155;80;20237;-83
2022/04/16 11:51:48;;;;;;;;;;;;;;;6.24;100.00;99237.86;1726673;80;20947;-84
2022/04/16 11:54:14;;;;;;;;;;;;;;;6.17;100.00;99230.75;1727375;80;24686;-82
2022/04/16 11:56:42;;;;;;;;;;;;;;;6.13;100.00;99232.23;1729966;80;21911;-82
2022/04/16 11:59:08;;;;;;;;;;;;;;;6.21;100.00;99230.20;1720194;80;27449;-86
2022/04/16 12:01:34;;;;;;;;;;;;;;;6.34;100.00;99224.89;1730595;80;20279;-87
2022/04/16 12:04:01;;;;;;;;;;;;;;;6.42;100.00;99227.19;1720309;80;20284;-87
2022/04/16 12:06:28;;;;;;;;;;;;;;;6.49;100.00;99226.05;1730811;80;24963;-87
2022/04/16 12:08:54;;;;;;;;;;;;;;;6.49;100.00;99231.24;1724143;80;21826;-87
2022/04/16 12:11:20;;;;;;;;;;;;;;;6.45;100.00;99230.50;1736937;80;26046;-87
2022/04/16 12:13:48;;;;;;;;;;;;;;;6.45;100.00;99230.95;1720182;80;24493;-87
2022/04/16 12:16:14;;;;;;;;;;;;;;;6.49;100.00;99225.56;1728673;80;20252;-87
2022/04/16 12:18:43;;;;;;;;;;;;;;;6.63;100.00;99225.02;1728254;80;24543;-87
2022/04/16 12:21:14;;;;;;;;;;;;;;;6.73;100.00;99223.72;1728830;80;22066;-87
2022/04/16 12:23:41;;;;;;;;;;;;;;;6.73;100.00;99226.31;1746452;80;26006;-87
2022/04/16 12:26:08;;;;;;;;;;;;;;;6.78;100.00;99223.06;1723437;80;24536;-86
2022/04/16 12:28:38;;;;;;;;;;;;;;;6.84;100.00;99219.36;1766756;80;20296;-87
2022/04/16 12:31:05;;;;;;;;;;;;;;;6.92;100.00;99225.95;1767612;79;25245;-87
2022/04/16 12:33:31;;;;;;;;;;;;;;;7.00;100.00;99224.30;1768837;80;22002;-87
2022/04/16 12:35:58;;;;;;;;;;;;;;;7.00;100.00;99217.34;1772157;80;26007;-87
2022/04/16 12:38:25;;;;;;;;;;;;;;;7.04;100.00;99223.25;1776091;80;24488;-87
2022/04/16 12:40:52;;;;;;;;;;;;;;;7.05;100.00;99223.20;1770294;80;20225;-87
2022/04/16 12:43:18;;;;;;;;;;;;;;;7.12;100.00;99218.58;1764317;80;24547;-87
2022/04/16 12:45:45;;;;;;;;;;;;;;;7.09;100.00;99221.33;1770291;80;22774;-87
2022/04/16 12:48:15;;;;;;;;;;;;;;;7.07;100.00;99218.78;1775002;80;25986;-89
2022/04/16 12:50:44;;;;;;;;;;;;;;;7.14;100.00;99216.31;1776338;80;24412;-86
2022/04/16 12:53:10;;;;;;;;;;;;;;;7.16;100.00;99220.12;1769630;80;20292;-86
2022/04/16 12:55:36;;;;;;;;;;;;;;;7.17;100.00;99217.08;1772450;80;24571;-86
2022/04/16 12:58:02;;;;;;;;;;;;;;;7.22;100.00;99214.66;1776514;80;21981;-86
2022/04/16 13:00:28;;;;;;;;;;;;;;;7.26;100.00;99217.97;1765185;80;26858;-86
2022/04/16 13:02:54;;;;;;;;;;;;;;;7.27;100.00;99218.36;1774010;80;24445;-86
2022/04/16 13:05:20;;;;;;;;;;;;;;;7.25;100.00;99215.00;1773078;80;20279;-85
2022/04/16 13:07:47;;;;;;;;;;;;;;;7.27;100.00;99206.19;1777719;80;24579;-85
2022/04/16 13:10:14;;;;;;;;;;;;;;;7.33;100.00;99205.92;1766010;80;21947;-86
2022/04/16 13:12:40;;;;;;;;;;;;;;;7.44;100.00;99204.99;1774976;80;25928;-86
2022/04/16 13:15:09;;;;;;;;;;;;;;;7.57;100.00;99197.48;1775512;80;24428;-84